Time;durP1;ratioP1;P1;durP2;ratioP2;P2;SDS_P1;SDS_P2;PMS_P1;PMS_P2;Temp;Humidity;BMP_temperature;BMP_pressure;BME280_temperature;BME280_humidity;BME280_pressure;Samples;Min_cycle;Max_cycle;Signal;HPM_P1;HPM_P2
2023/03/25 00:00:57;;;;;;;4.38;1.00;;;10.10;99.90;;;;;;4988658;28;20063;-58
2023/03/25 00:03:25;;;;;;;8.35;0.93;;;9.90;99.90;;;;;;4988625;28;20501;-58
2023/03/25 00:05:51;;;;;;;3.70;1.13;;;9.90;99.90;;;;;;4990669;28;20034;-58
2023/03/25 00:08:17;;;;;;;4.85;1.67;;;10.00;99.90;;;;;;4989425;28;20023;-58
2023/03/25 00:10:42;;;;;;;7.28;1.30;;;10.00;99.90;;;;;;4988840;28;20030;-59
2023/03/25 00:13:12;;;;;;;5.35;1.10;;;10.00;99.90;;;;;;4987468;28;20690;-59
2023/03/25 00:15:41;;;;;;;5.43;1.20;;;10.00;99.90;;;;;;4989280;28;20031;-59
2023/03/25 00:18:07;;;;;;;4.63;1.08;;;10.00;99.90;;;;;;4989139;28;20076;-59
2023/03/25 00:20:32;;;;;;;3.92;1.08;;;10.00;99.90;;;;;;4989659;28;20070;-59
2023/03/25 00:22:58;;;;;;;4.80;1.23;;;9.80;99.90;;;;;;4972742;28;20029;-59
2023/03/25 00:25:23;;;;;;;5.20;1.00;;;9.90;99.90;;;;;;4989063;28;20042;-59
2023/03/25 00:27:49;;;;;;;6.13;1.20;;;9.90;99.90;;;;;;4989962;28;20445;-59
2023/03/25 00:30:17;;;;;;;5.53;1.10;;;10.00;99.90;;;;;;4983141;28;20647;-59
2023/03/25 00:32:44;;;;;;;6.22;1.25;;;10.00;99.90;;;;;;4987327;28;20582;-59
2023/03/25 00:35:12;;;;;;;6.50;1.00;;;10.00;99.90;;;;;;4984732;28;20089;-59
2023/03/25 00:37:38;;;;;;;3.78;0.95;;;10.20;99.90;;;;;;4985876;28;20078;-59
2023/03/25 00:40:04;;;;;;;5.30;1.13;;;10.20;99.90;;;;;;4989724;28;20551;-59
2023/03/25 00:42:30;;;;;;;7.00;1.35;;;10.30;99.90;;;;;;4986188;28;20494;-59
2023/03/25 00:44:55;;;;;;;6.18;1.13;;;10.10;99.90;;;;;;4986060;28;20309;-59
2023/03/25 00:47:21;;;;;;;5.57;1.35;;;10.00;99.90;;;;;;4984766;28;20410;-59
2023/03/25 00:49:48;;;;;;;5.28;1.40;;;10.00;99.90;;;;;;4986513;28;20030;-59
2023/03/25 00:52:14;;;;;;;6.43;1.40;;;10.10;99.90;;;;;;4987466;28;20097;-59
2023/03/25 00:54:42;;;;;;;6.30;1.30;;;10.10;99.90;;;;;;4987988;28;20114;-59
2023/03/25 00:57:07;;;;;;;6.72;1.60;;;10.30;99.90;;;;;;4985244;28;20038;-59
2023/03/25 00:59:33;;;;;;;5.05;1.27;;;10.20;99.90;;;;;;4986680;28;20089;-59
2023/03/25 01:01:58;;;;;;;5.43;1.38;;;10.20;99.90;;;;;;4990823;28;20057;-59
2023/03/25 01:04:24;;;;;;;4.28;1.20;;;10.30;99.90;;;;;;4986545;28;20375;-59
2023/03/25 01:06:52;;;;;;;4.43;1.38;;;10.20;99.90;;;;;;4989322;28;20049;-59
2023/03/25 01:09:19;;;;;;;4.30;1.08;;;10.10;99.90;;;;;;4989122;28;20038;-59
2023/03/25 01:11:46;;;;;;;7.50;1.50;;;10.00;99.90;;;;;;4985598;28;20526;-59
2023/03/25 01:14:18;;;;;;;9.05;1.75;;;10.10;99.90;;;;;;4986861;28;20044;-59
2023/03/25 01:16:44;;;;;;;4.25;1.30;;;10.10;99.90;;;;;;4986542;28;20485;-59
2023/03/25 01:19:10;;;;;;;5.68;1.42;;;10.10;99.90;;;;;;4986352;28;20034;-59
2023/03/25 01:21:36;;;;;;;4.38;1.08;;;10.20;99.90;;;;;;4987172;28;20501;-59
2023/03/25 01:24:06;;;;;;;5.07;1.38;;;10.10;99.90;;;;;;4986820;28;20035;-59
2023/03/25 01:26:32;;;;;;;6.32;1.33;;;10.30;99.90;;;;;;4987662;28;20411;-59
2023/03/25 01:28:57;;;;;;;7.15;1.30;;;10.30;99.90;;;;;;4986220;28;20456;-59
2023/03/25 01:31:24;;;;;;;5.72;1.70;;;10.30;99.90;;;;;;4985842;28;20088;-59
2023/03/25 01:33:50;;;;;;;5.45;1.33;;;10.40;99.90;;;;;;4986416;28;20026;-59
2023/03/25 01:36:16;;;;;;;4.75;1.40;;;10.40;99.90;;;;;;4983138;28;20839;-59
2023/03/25 01:38:41;;;;;;;4.63;1.20;;;10.40;99.90;;;;;;4986925;28;20034;-59
2023/03/25 01:41:08;;;;;;;6.72;1.40;;;10.30;99.90;;;;;;4986016;28;20117;-59
2023/03/25 01:43:35;;;;;;;4.95;1.65;;;10.20;99.90;;;;;;4985924;28;20390;-59
2023/03/25 01:46:00;;;;;;;5.57;1.42;;;10.30;99.90;;;;;;4985612;28;20696;-59
2023/03/25 01:48:39;;;;;;;4.63;1.20;;;10.30;99.90;;;;;;4968747;28;20117;-59
2023/03/25 01:51:13;;;;;;;5.75;1.30;;;10.20;99.90;;;;;;4985309;28;20615;-59
2023/03/25 01:53:39;;;;;;;6.60;1.20;;;10.20;99.90;;;;;;4986481;28;20077;-59
2023/03/25 01:56:09;;;;;;;7.50;1.40;;;10.30;99.90;;;;;;4962449;28;20065;-59
2023/03/25 01:58:35;;;;;;;7.50;1.45;;;10.20;99.90;;;;;;4960905;28;20081;-60
2023/03/25 02:01:02;;;;;;;5.18;1.30;;;10.30;99.90;;;;;;4974105;28;20082;-59
2023/03/25 02:03:30;;;;;;;4.95;1.20;;;10.30;99.90;;;;;;4962641;28;20091;-60
2023/03/25 02:05:58;;;;;;;4.28;1.30;;;10.20;99.90;;;;;;4965564;28;20041;-59
2023/03/25 02:08:25;;;;;;;2.60;1.00;;;10.20;99.90;;;;;;4965482;28;20121;-59
2023/03/25 02:10:52;;;;;;;5.53;1.10;;;10.20;99.90;;;;;;4966888;28;20394;-60
2023/03/25 02:13:19;;;;;;;4.60;1.17;;;10.10;99.90;;;;;;4967859;28;20031;-59
2023/03/25 02:16:09;;;;;;;5.03;1.40;;;10.20;99.90;;;;;;4965036;28;20093;-60
2023/03/25 02:18:42;;;;;;;3.00;1.10;;;10.00;99.90;;;;;;4981300;28;20501;-59
2023/03/25 02:21:37;;;;;;;4.20;1.10;;;10.10;99.90;;;;;;4984044;28;20042;-59
2023/03/25 02:24:18;;;;;;;4.15;1.05;;;10.20;99.90;;;;;;4983972;28;20033;-59
2023/03/25 02:27:26;;;;;;;2.80;1.20;;;10.00;99.90;;;;;;4982853;28;20041;-59
2023/03/25 02:30:22;;;;;;;7.90;1.50;;;10.10;99.90;;;;;;4983829;28;20046;-59
2023/03/25 02:33:20;;;;;;;5.05;1.13;;;10.20;99.90;;;;;;4986562;28;20038;-59
2023/03/25 02:36:24;;;;;;;6.18;1.30;;;10.20;99.90;;;;;;4986121;28;20494;-59
2023/03/25 02:38:51;;;;;;;;;;;10.20;99.90;;;;;;4948875;28;20497;-60
2023/03/25 02:41:24;;;;;;;6.20;1.25;;;10.20;99.90;;;;;;4984250;28;19916;-59
2023/03/25 02:44:15;;;;;;;5.38;1.30;;;10.10;99.90;;;;;;4985234;28;20112;-60
2023/03/25 02:46:47;;;;;;;4.53;1.30;;;10.10;99.90;;;;;;4984048;28;20050;-60
2023/03/25 02:49:26;;;;;;;5.05;1.13;;;10.10;99.90;;;;;;4986898;28;20612;-59
2023/03/25 02:51:59;;;;;;;3.53;0.93;;;10.00;99.90;;;;;;4984249;28;20038;-60
2023/03/25 02:54:27;;;;;;;2.47;0.82;;;10.00;99.90;;;;;;4985686;28;20555;-59
2023/03/25 02:56:56;;;;;;;6.68;1.30;;;10.10;99.90;;;;;;4984220;28;20041;-59
2023/03/25 02:59:24;;;;;;;3.90;1.10;;;10.10;99.90;;;;;;4984863;28;20477;-60
2023/03/25 03:01:57;;;;;;;2.72;1.20;;;10.20;99.90;;;;;;4984926;28;20034;-60
2023/03/25 03:04:24;;;;;;;7.82;1.05;;;10.10;99.90;;;;;;4985289;28;20030;-59
2023/03/25 03:06:51;;;;;;;4.65;1.38;;;10.10;99.90;;;;;;4985495;28;20034;-60
2023/03/25 03:09:30;;;;;;;5.10;1.20;;;10.00;99.90;;;;;;4986567;28;20398;-59
2023/03/25 03:12:27;;;;;;;3.95;1.00;;;10.00;99.90;;;;;;4984245;28;20125;-60
2023/03/25 03:15:01;;;;;;;4.53;1.20;;;10.00;99.90;;;;;;4983853;28;20054;-59
2023/03/25 03:17:51;;;;;;;5.50;1.20;;;10.10;99.90;;;;;;4984873;28;20070;-59
2023/03/25 03:20:50;;;;;;;3.65;1.33;;;9.90;99.90;;;;;;4982407;28;20048;-60
2023/03/25 03:23:25;;;;;;;4.65;1.30;;;9.90;99.90;;;;;;4972828;28;20030;-59
2023/03/25 03:26:09;;;;;;;4.75;1.50;;;9.90;99.90;;;;;;4986132;28;20518;-60
2023/03/25 03:28:40;;;;;;;4.25;1.20;;;10.00;99.90;;;;;;4984845;28;20037;-60
2023/03/25 03:31:19;;;;;;;5.00;1.40;;;10.00;99.90;;;;;;4984868;28;20047;-59
2023/03/25 03:34:02;;;;;;;6.97;1.30;;;10.00;99.90;;;;;;4986149;28;20354;-60
2023/03/25 03:36:35;;;;;;;5.30;1.25;;;9.90;99.90;;;;;;4987401;28;20123;-60
2023/03/25 03:39:20;;;;;;;4.90;1.15;;;9.90;99.90;;;;;;4989575;28;20081;-60
2023/03/25 03:41:51;;;;;;;6.18;1.38;;;9.90;99.90;;;;;;4987938;28;20031;-60
2023/03/25 03:44:20;;;;;;;8.25;1.80;;;10.00;99.90;;;;;;4989254;28;20034;-60
2023/03/25 03:47:07;;;;;;;5.70;1.40;;;10.00;99.90;;;;;;4988686;28;20375;-60
2023/03/25 03:49:38;;;;;;;9.43;1.92;;;10.00;99.90;;;;;;4989484;28;20524;-60
2023/03/25 03:52:16;;;;;;;5.22;1.48;;;10.00;99.90;;;;;;4987602;28;20048;-60
2023/03/25 03:54:48;;;;;;;5.35;1.70;;;9.90;99.90;;;;;;4988944;28;20122;-60
2023/03/25 03:57:25;;;;;;;5.63;1.52;;;9.80;99.90;;;;;;4968798;28;20046;-60
2023/03/25 04:00:02;;;;;;;10.18;1.52;;;9.90;99.90;;;;;;4969133;28;20027;-60
2023/03/25 04:02:37;;;;;;;5.43;1.60;;;9.90;99.90;;;;;;4989340;28;20039;-60
2023/03/25 04:05:05;;;;;;;6.85;1.50;;;9.80;99.90;;;;;;4986994;28;20112;-60
2023/03/25 04:08:01;;;;;;;6.00;1.50;;;9.90;99.90;;;;;;4987998;28;20096;-59
2023/03/25 04:10:51;;;;;;;7.72;1.17;;;9.80;99.90;;;;;;4956035;28;20038;-59
2023/03/25 04:13:18;;;;;;;6.93;1.58;;;9.80;99.90;;;;;;4986674;28;20030;-60
2023/03/25 04:15:44;;;;;;;5.72;1.52;;;9.90;99.90;;;;;;4987449;28;20161;-59
2023/03/25 04:18:10;;;;;;;7.57;2.03;;;9.90;99.90;;;;;;4970424;28;20042;-60
2023/03/25 04:20:43;;;;;;;7.55;1.75;;;9.90;99.90;;;;;;4988109;28;20053;-60
2023/03/25 04:23:15;;;;;;;5.68;1.60;;;9.80;99.90;;;;;;4988167;28;20092;-60
2023/03/25 04:25:42;;;;;;;6.13;1.33;;;9.80;99.90;;;;;;4988509;28;20524;-60
2023/03/25 04:28:12;;;;;;;7.53;1.33;;;9.70;99.90;;;;;;4985306;28;20174;-59
2023/03/25 04:30:38;;;;;;;7.13;1.55;;;9.70;99.90;;;;;;4988915;28;20038;-60
2023/03/25 04:33:05;;;;;;;6.80;1.77;;;9.80;99.90;;;;;;4986711;28;20030;-60
2023/03/25 04:35:31;;;;;;;8.73;1.92;;;9.70;99.90;;;;;;4970401;28;20027;-59
2023/03/25 04:37:58;;;;;;;5.68;1.40;;;9.80;99.90;;;;;;4987294;28;20114;-60
2023/03/25 04:40:24;;;;;;;5.40;1.38;;;9.70;99.90;;;;;;4987366;28;20030;-60
2023/03/25 04:42:52;;;;;;;8.20;1.40;;;9.80;99.90;;;;;;4986426;28;20022;-59
2023/03/25 04:45:18;;;;;;;9.27;1.60;;;9.70;99.90;;;;;;4983444;28;20062;-60
2023/03/25 04:47:48;;;;;;;6.65;1.75;;;9.70;99.90;;;;;;4985231;28;20421;-60
2023/03/25 04:50:26;;;;;;;7.75;1.85;;;9.80;99.90;;;;;;4986139;28;20027;-60
2023/03/25 04:52:52;;;;;;;6.30;1.40;;;9.90;99.90;;;;;;4986084;28;20027;-60
2023/03/25 04:55:22;;;;;;;13.07;1.67;;;9.70;99.90;;;;;;4985647;28;20084;-60
2023/03/25 04:57:49;;;;;;;6.28;1.30;;;9.80;99.90;;;;;;4986406;28;20394;-60
2023/03/25 05:00:17;;;;;;;6.93;1.27;;;9.80;99.90;;;;;;4986467;28;20041;-60
2023/03/25 05:02:47;;;;;;;5.32;1.48;;;9.80;99.90;;;;;;4986063;28;20084;-60
2023/03/25 05:05:18;;;;;;;7.53;1.10;;;9.90;99.90;;;;;;4986273;28;20065;-60
2023/03/25 05:07:49;;;;;;;6.30;1.20;;;9.90;99.90;;;;;;4987886;28;20034;-60
2023/03/25 05:10:19;;;;;;;5.68;1.30;;;9.90;99.90;;;;;;4985868;28;20137;-59
2023/03/25 05:12:45;;;;;;;3.63;1.20;;;10.00;99.90;;;;;;4985775;28;20486;-60
2023/03/25 05:15:12;;;;;;;8.52;1.52;;;9.90;99.90;;;;;;4988848;28;20035;-60
2023/03/25 05:17:37;;;;;;;6.38;1.10;;;10.00;99.90;;;;;;4986218;28;20042;-59
2023/03/25 05:20:09;;;;;;;8.23;1.65;;;10.00;99.90;;;;;;4986821;28;20042;-60
2023/03/25 05:22:36;;;;;;;10.18;1.23;;;9.90;99.90;;;;;;4986981;28;20076;-60
2023/03/25 05:25:05;;;;;;;6.45;1.38;;;9.90;99.90;;;;;;4986106;28;20031;-60
2023/03/25 05:27:31;;;;;;;7.63;1.25;;;9.70;99.90;;;;;;4968699;28;20517;-60
2023/03/25 05:29:57;;;;;;;5.22;1.38;;;9.80;99.90;;;;;;4989790;28;20042;-60
2023/03/25 05:32:32;;;;;;;4.38;1.23;;;9.80;99.90;;;;;;4983231;28;20449;-60
2023/03/25 05:34:58;;;;;;;6.25;1.45;;;9.80;99.90;;;;;;4985917;28;20042;-60
2023/03/25 05:37:23;;;;;;;5.85;1.67;;;9.90;99.90;;;;;;4986091;28;20092;-60
2023/03/25 05:39:50;;;;;;;8.30;1.48;;;9.90;99.90;;;;;;4987192;28;20441;-60
2023/03/25 05:42:16;;;;;;;6.50;1.42;;;9.90;99.90;;;;;;4986249;28;20038;-60
2023/03/25 05:44:50;;;;;;;10.25;1.55;;;9.90;99.90;;;;;;4986563;28;20057;-60
2023/03/25 05:47:22;;;;;;;8.05;1.42;;;9.90;99.90;;;;;;4984188;28;20405;-60
2023/03/25 05:49:51;;;;;;;6.57;1.55;;;9.90;99.90;;;;;;4986336;28;20034;-60
2023/03/25 05:52:18;;;;;;;8.13;1.45;;;9.80;99.90;;;;;;4986567;28;20030;-60
2023/03/25 05:54:45;;;;;;;8.30;1.70;;;9.80;99.90;;;;;;4986869;28;20080;-60
2023/03/25 05:57:11;;;;;;;10.20;1.80;;;9.90;99.90;;;;;;4985598;28;20547;-59
2023/03/25 05:59:38;;;;;;;7.85;2.03;;;9.90;99.90;;;;;;4986495;28;20069;-59
2023/03/25 06:02:06;;;;;;;12.07;1.83;;;9.80;99.90;;;;;;4987251;28;20046;-60
2023/03/25 06:04:36;;;;;;;10.30;1.80;;;9.70;99.90;;;;;;4986894;28;20125;-59
2023/03/25 06:07:12;;;;;;;9.15;1.50;;;9.80;99.90;;;;;;4986665;28;20038;-60
2023/03/25 06:09:45;;;;;;;9.30;1.70;;;9.80;99.90;;;;;;4983170;28;20042;-60
2023/03/25 06:12:19;;;;;;;8.68;1.98;;;9.90;99.90;;;;;;4985464;28;20034;-60
2023/03/25 06:14:52;;;;;;;9.82;1.70;;;9.90;99.90;;;;;;4986035;28;20034;-59
2023/03/25 06:17:21;;;;;;;8.85;1.85;;;10.00;99.90;;;;;;4983464;28;20038;-60
2023/03/25 06:19:50;;;;;;;9.15;1.95;;;10.00;99.90;;;;;;4985669;28;20045;-60
2023/03/25 06:22:19;;;;;;;10.32;2.42;;;9.90;99.90;;;;;;4985962;28;20045;-59
2023/03/25 06:24:45;;;;;;;10.20;1.55;;;9.90;99.90;;;;;;4985778;28;20026;-60
2023/03/25 06:27:13;;;;;;;12.23;1.83;;;9.90;99.90;;;;;;4983057;28;20034;-60
2023/03/25 06:29:42;;;;;;;7.47;1.70;;;10.00;99.90;;;;;;4986563;28;20117;-59
2023/03/25 06:32:10;;;;;;;7.53;1.85;;;9.90;99.90;;;;;;4985919;28;20065;-60
2023/03/25 06:34:35;;;;;;;8.18;1.67;;;9.70;99.90;;;;;;4986921;28;20085;-59
2023/03/25 06:37:01;;;;;;;10.48;1.83;;;9.80;99.90;;;;;;4985569;28;20065;-60
2023/03/25 06:39:30;;;;;;;8.93;1.77;;;9.80;99.90;;;;;;4983692;28;20137;-60
2023/03/25 06:42:01;;;;;;;9.52;2.03;;;9.90;99.90;;;;;;4985400;28;20541;-59
2023/03/25 06:44:27;;;;;;;8.27;1.63;;;10.00;99.90;;;;;;4986556;28;20042;-59
2023/03/25 06:46:53;;;;;;;7.82;1.52;;;9.90;99.90;;;;;;4985612;28;20050;-59
2023/03/25 06:49:18;;;;;;;8.13;2.33;;;9.90;99.90;;;;;;4985945;28;20508;-60
2023/03/25 06:51:44;;;;;;;11.27;1.90;;;10.00;99.90;;;;;;4985492;28;20086;-59
2023/03/25 06:54:10;;;;;;;9.32;1.90;;;10.00;99.90;;;;;;4986049;28;20026;-59
2023/03/25 06:56:36;;;;;;;8.40;1.73;;;10.10;99.90;;;;;;4986532;28;20440;-59
2023/03/25 06:59:02;;;;;;;11.00;2.05;;;10.10;99.90;;;;;;4986005;28;20497;-59
2023/03/25 07:01:27;;;;;;;7.90;1.85;;;10.10;99.90;;;;;;4986017;28;21376;-59
2023/03/25 07:03:53;;;;;;;7.05;1.77;;;10.10;99.90;;;;;;4986232;28;20501;-59
2023/03/25 07:06:22;;;;;;;10.13;1.75;;;10.00;99.90;;;;;;4986089;28;20398;-59
2023/03/25 07:08:48;;;;;;;11.68;2.10;;;10.00;99.90;;;;;;4989448;28;20054;-59
2023/03/25 07:11:24;;;;;;;10.05;1.85;;;10.20;99.90;;;;;;4989011;28;20038;-59
2023/03/25 07:13:52;;;;;;;7.68;2.03;;;10.30;99.90;;;;;;4989817;28;20038;-59
2023/03/25 07:16:19;;;;;;;12.55;2.13;;;10.30;99.90;;;;;;4990026;28;20034;-59
2023/03/25 07:18:45;;;;;;;7.38;1.70;;;10.40;99.90;;;;;;4990138;28;20053;-59
2023/03/25 07:21:11;;;;;;;12.13;2.60;;;10.10;99.90;;;;;;4987603;28;20038;-60
2023/03/25 07:23:36;;;;;;;9.82;2.25;;;10.20;99.90;;;;;;4986729;28;20035;-60
2023/03/25 07:26:02;;;;;;;9.90;2.00;;;10.30;99.90;;;;;;4989727;28;20030;-60
2023/03/25 07:28:27;;;;;;;10.48;1.75;;;10.10;99.90;;;;;;4990189;28;20466;-59
2023/03/25 07:30:53;;;;;;;8.20;1.60;;;10.20;99.90;;;;;;4989718;28;20042;-59
2023/03/25 07:33:18;;;;;;;13.38;1.80;;;10.10;99.90;;;;;;4984901;28;20925;-59
2023/03/25 07:35:44;;;;;;;6.43;1.55;;;10.00;99.90;;;;;;4998002;28;20037;-59
2023/03/25 07:38:10;;;;;;;10.02;2.10;;;10.00;99.90;;;;;;4994904;28;20544;-59
2023/03/25 07:40:35;;;;;;;6.07;1.67;;;10.10;99.90;;;;;;4990945;28;20393;-59
2023/03/25 07:43:01;;;;;;;12.32;1.88;;;10.30;99.90;;;;;;4988366;28;20429;-60
2023/03/25 07:45:26;;;;;;;9.00;1.85;;;10.30;99.90;;;;;;4989108;28;20279;-59
2023/03/25 07:47:52;;;;;;;10.73;1.95;;;10.30;99.90;;;;;;4988957;28;20217;-59
2023/03/25 07:50:19;;;;;;;7.53;1.90;;;10.30;99.90;;;;;;4989652;28;20026;-59
2023/03/25 07:52:45;;;;;;;7.78;1.52;;;10.30;99.90;;;;;;4989636;28;20508;-60
2023/03/25 07:55:11;;;;;;;8.45;1.70;;;10.30;99.90;;;;;;4955862;28;20026;-59
2023/03/25 07:57:37;;;;;;;12.90;2.13;;;10.50;99.90;;;;;;4970123;28;20366;-59
2023/03/25 08:00:04;;;;;;;9.70;1.60;;;10.60;99.90;;;;;;4971872;28;20548;-60
2023/03/25 08:02:30;;;;;;;13.27;2.60;;;10.50;99.90;;;;;;4970245;28;20611;-59
2023/03/25 08:04:56;;;;;;;10.95;1.92;;;10.60;99.90;;;;;;4971061;28;20026;-59
2023/03/25 08:07:22;;;;;;;9.10;1.88;;;10.80;99.90;;;;;;4970500;28;20059;-59
2023/03/25 08:09:47;;;;;;;13.38;2.13;;;10.90;99.90;;;;;;4970300;28;20029;-59
2023/03/25 08:12:13;;;;;;;8.13;2.35;;;11.20;99.90;;;;;;4969876;28;20047;-59
2023/03/25 08:14:39;;;;;;;7.10;1.77;;;11.30;99.90;;;;;;4969029;28;20114;-59
2023/03/25 08:17:05;;;;;;;12.75;2.25;;;11.20;99.90;;;;;;4969663;28;20062;-59
2023/03/25 08:19:31;;;;;;;10.65;2.20;;;11.10;99.90;;;;;;4970097;28;20047;-59
2023/03/25 08:21:57;;;;;;;15.77;2.97;;;11.00;99.90;;;;;;4970913;28;20046;-59
2023/03/25 08:24:25;;;;;;;7.28;1.70;;;10.80;99.90;;;;;;4969302;28;20041;-59
2023/03/25 08:26:53;;;;;;;10.05;2.00;;;10.90;99.90;;;;;;4969929;28;20073;-62
2023/03/25 08:29:19;;;;;;;11.50;2.15;;;11.00;99.90;;;;;;4969629;28;20090;-59
2023/03/25 08:31:45;;;;;;;13.65;2.63;;;10.80;99.90;;;;;;4968237;28;20039;-59
2023/03/25 08:34:12;;;;;;;15.48;2.70;;;10.90;99.90;;;;;;4968589;28;20037;-59
2023/03/25 08:36:38;;;;;;;9.05;2.22;;;11.10;99.90;;;;;;4967908;28;20533;-59
2023/03/25 08:39:10;;;;;;;14.85;2.80;;;11.00;99.90;;;;;;4968433;28;20034;-59
2023/03/25 08:41:37;;;;;;;9.45;2.33;;;11.00;99.90;;;;;;4967445;28;20114;-59
2023/03/25 08:44:03;;;;;;;10.23;2.13;;;11.10;99.90;;;;;;4967551;28;20027;-59
2023/03/25 08:46:29;;;;;;;12.40;2.55;;;11.20;99.90;;;;;;4968689;28;20106;-59
2023/03/25 08:48:55;;;;;;;11.10;2.42;;;11.20;99.90;;;;;;4970750;28;20110;-59
2023/03/25 08:51:20;;;;;;;16.27;3.05;;;11.30;99.90;;;;;;4971050;28;20505;-59
2023/03/25 08:53:46;;;;;;;13.05;2.50;;;11.40;99.90;;;;;;4972930;28;20034;-59
2023/03/25 08:56:12;;;;;;;12.32;2.45;;;11.40;99.90;;;;;;4970853;28;20039;-59
2023/03/25 08:58:38;;;;;;;10.73;2.17;;;11.30;99.90;;;;;;4971504;28;20446;-59
2023/03/25 09:01:04;;;;;;;11.43;2.40;;;11.20;99.90;;;;;;4969103;28;20027;-59
2023/03/25 09:03:30;;;;;;;14.57;2.65;;;11.20;99.90;;;;;;4968370;28;20049;-59
2023/03/25 09:05:55;;;;;;;13.50;2.75;;;11.10;99.90;;;;;;4970402;28;20039;-59
2023/03/25 09:08:21;;;;;;;13.82;2.35;;;11.00;99.90;;;;;;4971680;28;20057;-59
2023/03/25 09:10:47;;;;;;;16.40;2.72;;;11.10;99.90;;;;;;4968322;28;20042;-58
2023/03/25 09:13:13;;;;;;;15.40;2.35;;;11.10;99.90;;;;;;4967817;28;20089;-59
2023/03/25 09:15:38;;;;;;;14.40;2.58;;;11.00;99.90;;;;;;4967888;28;20038;-59
2023/03/25 09:18:04;;;;;;;12.10;2.30;;;11.00;99.90;;;;;;4969404;28;20114;-59
2023/03/25 09:20:30;;;;;;;14.57;3.03;;;10.90;99.90;;;;;;4971055;28;20069;-59
2023/03/25 09:22:56;;;;;;;14.73;2.78;;;11.00;99.90;;;;;;4971340;28;20121;-59
2023/03/25 09:25:22;;;;;;;12.10;2.17;;;11.10;99.90;;;;;;4975558;28;20060;-59
2023/03/25 09:27:48;;;;;;;17.02;2.55;;;11.30;99.90;;;;;;4973184;28;20420;-59
2023/03/25 09:30:14;;;;;;;12.75;2.58;;;11.30;99.90;;;;;;4969680;28;20129;-59
2023/03/25 09:32:40;;;;;;;12.40;2.15;;;11.30;99.90;;;;;;4967187;28;20035;-62
2023/03/25 09:35:06;;;;;;;12.85;2.10;;;11.40;99.90;;;;;;4971042;28;20137;-58
2023/03/25 09:37:32;;;;;;;14.70;2.40;;;11.40;99.90;;;;;;4968823;28;20037;-60
2023/03/25 09:39:58;;;;;;;13.70;2.50;;;11.50;99.90;;;;;;4970928;28;20148;-63
2023/03/25 09:42:39;;;;;;;11.73;2.28;;;11.60;99.90;;;;;;4965480;28;20027;-62
2023/03/25 09:45:35;;;;;;;10.07;2.50;;;11.70;99.90;;;;;;4967058;28;20045;-63
2023/03/25 09:48:21;;;;;;;15.27;2.92;;;11.80;99.90;;;;;;4969622;28;20524;-63
2023/03/25 09:50:47;;;;;;;137.20;37.22;;;11.80;99.90;;;;;;4986394;28;20026;-62
2023/03/25 09:53:27;;;;;;;80.32;14.80;;;11.20;99.90;;;;;;4970673;28;20034;-62
2023/03/25 09:55:54;;;;;;;353.10;94.75;;;9.60;99.90;;;;;;4989606;28;20121;-62
2023/03/25 09:59:01;;;;;;;34.75;9.77;;;9.20;99.90;;;;;;4986797;28;20125;-70
2023/03/25 10:01:49;;;;;;;280.92;62.80;;;9.00;99.90;;;;;;4979187;28;20687;-62
2023/03/25 10:04:44;;;;;;;17.00;3.50;;;9.10;99.90;;;;;;4984811;28;20533;-69
2023/03/25 10:07:28;;;;;;;13.15;2.80;;;8.80;99.90;;;;;;4989983;28;20298;-67
2023/03/25 10:10:14;;;;;;;431.55;69.78;;;8.60;99.90;;;;;;4987298;28;20031;-68
2023/03/25 10:12:40;;;;;;;17.15;3.85;;;8.90;99.90;;;;;;4988321;28;20030;-64
2023/03/25 10:15:32;;;;;;;21.92;4.28;;;8.60;99.90;;;;;;4985302;28;20620;-69
2023/03/25 10:18:13;;;;;;;15.40;2.60;;;8.70;99.90;;;;;;4987664;28;20042;-62
2023/03/25 10:21:02;;;;;;;13.05;2.55;;;8.60;99.90;;;;;;4967983;28;20109;-62
2023/03/25 10:23:28;;;;;;;16.15;3.15;;;8.70;99.90;;;;;;4990175;28;20109;-62
2023/03/25 10:26:01;;;;;;;14.68;2.78;;;8.70;99.90;;;;;;4987709;28;20561;-62
2023/03/25 10:28:32;;;;;;;8.98;2.22;;;8.70;99.90;;;;;;4990161;28;20826;-63
2023/03/25 10:30:58;;;;;;;15.07;3.30;;;8.70;99.90;;;;;;4985766;28;20596;-61
2023/03/25 10:33:34;;;;;;;17.75;2.83;;;8.90;99.90;;;;;;4983138;28;20033;-61
2023/03/25 10:36:01;;;;;;;8.63;1.77;;;8.80;99.90;;;;;;4986541;28;20773;-61
2023/03/25 10:38:29;;;;;;;10.18;2.15;;;8.80;99.90;;;;;;4986281;28;20030;-60
2023/03/25 10:41:24;;;;;;;7.07;1.95;;;8.80;99.90;;;;;;4986200;28;20602;-59
2023/03/25 10:43:50;;;;;;;8.15;1.90;;;9.10;99.90;;;;;;4985422;28;20042;-60
2023/03/25 10:46:38;;;;;;;9.65;1.95;;;9.20;99.90;;;;;;4984924;28;20038;-60
2023/03/25 10:49:03;;;;;;;12.98;2.20;;;9.30;99.90;;;;;;4985432;28;20612;-61
2023/03/25 10:51:32;;;;;;;11.38;2.00;;;9.30;99.90;;;;;;4985954;28;20121;-65
2023/03/25 10:53:59;;;;;;;9.73;2.15;;;9.40;99.90;;;;;;4986072;28;20034;-65
2023/03/25 10:56:38;;;;;;;7.30;1.73;;;9.40;99.90;;;;;;4985874;28;20027;-64
2023/03/25 10:59:40;;;;;;;17.95;5.65;;;9.50;99.90;;;;;;4986310;28;20150;-65
2023/03/25 11:02:19;;;;;;;10.65;2.33;;;9.60;99.90;;;;;;4975546;28;20647;-63
2023/03/25 11:04:48;;;;;;;13.57;2.97;;;9.70;99.90;;;;;;4986220;28;20057;-67
2023/03/25 11:07:19;;;;;;;17.77;2.80;;;9.90;99.90;;;;;;4988846;28;20084;-66
2023/03/25 11:09:45;;;;;;;27.25;6.13;;;10.20;99.90;;;;;;4986275;28;20382;-70
2023/03/25 11:12:10;;;;;;;15.60;3.78;;;10.10;99.90;;;;;;4968149;28;20019;-69
2023/03/25 11:14:38;;;;;;;13.38;2.92;;;10.10;99.90;;;;;;4982158;28;20085;-69
2023/03/25 11:17:17;;;;;;;10.75;2.50;;;10.10;99.90;;;;;;4985266;28;20522;-68
2023/03/25 11:19:55;;;;;;;12.45;2.47;;;10.20;99.90;;;;;;4984433;28;20039;-69
2023/03/25 11:22:25;;;;;;;11.93;2.35;;;10.10;99.90;;;;;;4985995;28;22305;-68
2023/03/25 11:24:56;;;;;;;13.80;2.42;;;10.10;99.90;;;;;;4987340;28;20058;-68
2023/03/25 11:27:25;;;;;;;12.10;2.75;;;10.20;99.90;;;;;;4985129;28;20050;-67
2023/03/25 11:29:58;;;;;;;13.02;2.42;;;10.30;99.90;;;;;;4986529;28;20570;-65
2023/03/25 11:32:32;;;;;;;9.27;1.90;;;10.30;99.90;;;;;;4984525;28;20046;-64
2023/03/25 11:35:02;;;;;;;13.98;2.70;;;10.50;99.90;;;;;;4985992;28;20437;-66
2023/03/25 11:37:32;;;;;;;13.70;2.40;;;10.50;99.90;;;;;;4985958;28;20454;-65
2023/03/25 11:40:05;;;;;;;11.93;2.58;;;10.60;99.90;;;;;;4987838;28;20038;-65
2023/03/25 11:42:32;;;;;;;;;;;10.60;99.90;;;;;;4985864;28;20116;-65
2023/03/25 11:44:59;;;;;;;14.73;2.22;;;10.50;99.90;;;;;;4986145;28;19916;-64
2023/03/25 11:47:29;;;;;;;8.98;2.03;;;10.30;99.90;;;;;;4984692;28;20307;-65
2023/03/25 11:49:55;;;;;;;11.10;1.85;;;10.50;99.90;;;;;;4984368;28;20393;-64
2023/03/25 11:52:25;;;;;;;10.77;2.10;;;10.50;99.90;;;;;;4985197;28;20027;-65
2023/03/25 11:54:55;;;;;;;5.93;1.60;;;10.50;99.90;;;;;;4985599;28;20035;-66
2023/03/25 11:57:26;;;;;;;9.85;1.75;;;10.60;99.90;;;;;;4986711;28;20022;-65
2023/03/25 12:00:26;;;;;;;6.13;1.20;;;10.60;99.90;;;;;;4988268;28;20027;-64
2023/03/25 12:03:00;;;;;;;8.73;1.95;;;10.50;99.90;;;;;;4987108;28;20080;-64
2023/03/25 12:05:26;;;;;;;6.57;1.52;;;10.40;99.90;;;;;;4988414;28;20560;-65
2023/03/25 12:08:10;;;;;;;9.95;1.90;;;10.50;99.90;;;;;;4988336;28;20038;-65
2023/03/25 12:10:45;;;;;;;;;;;10.60;99.90;;;;;;4988738;28;20442;-65
2023/03/25 12:13:16;;;;;;;6.60;1.70;;;10.60;99.90;;;;;;4990540;28;20172;-65
2023/03/25 12:15:56;;;;;;;10.70;1.85;;;10.70;99.90;;;;;;4989573;28;20030;-65
2023/03/25 12:18:42;;;;;;;11.65;2.15;;;10.80;99.90;;;;;;4985845;28;20042;-65
2023/03/25 12:21:32;;;;;;;8.32;2.10;;;10.90;99.90;;;;;;4988253;28;20125;-64
2023/03/25 12:24:10;;;;;;;9.48;1.63;;;11.30;99.90;;;;;;4987502;28;20030;-65
2023/03/25 12:26:57;;;;;;;10.88;1.92;;;11.50;99.90;;;;;;4989166;28;20027;-65
2023/03/25 12:29:44;;;;;;;7.55;1.60;;;11.70;99.90;;;;;;4985448;28;20530;-65
2023/03/25 12:32:21;;;;;;;12.13;2.13;;;11.80;99.90;;;;;;4988808;28;20038;-65
2023/03/25 12:35:05;;;;;;;12.15;2.38;;;12.00;99.90;;;;;;4984843;28;20444;-65
2023/03/25 12:37:34;;;;;;;12.35;2.65;;;12.20;99.90;;;;;;4986549;28;20533;-64
2023/03/25 12:40:22;;;;;;;15.38;2.70;;;12.40;99.90;;;;;;4987044;28;20039;-65
2023/03/25 12:43:08;;;;;;;14.68;2.40;;;12.40;99.90;;;;;;4987972;28;20034;-65
2023/03/25 12:46:00;;;;;;;11.07;2.25;;;12.50;99.90;;;;;;4986494;28;20044;-65
2023/03/25 12:48:37;;;;;;;11.32;2.38;;;12.60;99.90;;;;;;4986572;28;20030;-64
2023/03/25 12:51:12;;;;;;;15.80;2.58;;;12.60;99.90;;;;;;4986317;28;20031;-64
2023/03/25 12:53:46;;;;;;;10.10;2.30;;;12.30;99.90;;;;;;4987366;28;20720;-62
2023/03/25 12:56:18;;;;;;;13.93;2.55;;;11.90;99.90;;;;;;4988330;28;20038;-62
2023/03/25 12:59:03;;;;;;;12.40;2.95;;;11.90;99.90;;;;;;4987445;28;20039;-62
2023/03/25 13:01:49;;;;;;;13.02;2.80;;;11.80;99.90;;;;;;4985138;28;20038;-63
2023/03/25 13:04:33;;;;;;;12.00;3.13;;;11.90;99.90;;;;;;4987205;28;20049;-62
2023/03/25 13:07:01;;;;;;;16.63;2.85;;;11.70;99.90;;;;;;4987527;28;20122;-63
2023/03/25 13:09:36;;;;;;;13.60;2.60;;;11.60;99.90;;;;;;4987065;28;20058;-63